sensor_id;sensor_type;location;lat;lon;timestamp;pressure;altitude;pressure_sealevel;temperature;humidity
28027;BME280;15344;52.342;-1.290;2023-07-31T00:01:22;99255.27;;;17.72;100.00
28027;BME280;15344;52.342;-1.290;2023-07-31T00:03:47;99249.31;;;17.89;100.00
28027;BME280;15344;52.342;-1.290;2023-07-31T00:06:13;99243.85;;;18.21;100.00
28027;BME280;15344;52.342;-1.290;2023-07-31T00:08:37;99236.35;;;18.76;100.00
28027;BME280;15344;52.342;-1.290;2023-07-31T00:11:03;99227.79;;;19.08;100.00
28027;BME280;15344;52.342;-1.290;2023-07-31T00:13:28;99219.61;;;18.02;100.00
28027;BME280;15344;52.342;-1.290;2023-07-31T00:15:53;99215.22;;;18.67;100.00
28027;BME280;15344;52.342;-1.290;2023-07-31T00:18:18;99217.06;;;18.03;100.00
28027;BME280;15344;52.342;-1.290;2023-07-31T00:20:43;99214.32;;;18.80;100.00
28027;BME280;15344;52.342;-1.290;2023-07-31T00:23:08;99211.25;;;18.65;100.00
28027;BME280;15344;52.342;-1.290;2023-07-31T00:25:34;99207.86;;;18.67;100.00
28027;BME280;15344;52.342;-1.290;2023-07-31T00:27:59;99207.98;;;18.86;100.00
28027;BME280;15344;52.342;-1.290;2023-07-31T00:30:24;99197.11;;;18.88;100.00
28027;BME280;15344;52.342;-1.290;2023-07-31T00:32:49;99197.78;;;19.18;100.00
28027;BME280;15344;52.342;-1.290;2023-07-31T00:35:14;99193.25;;;18.95;100.00
28027;BME280;15344;52.342;-1.290;2023-07-31T00:37:39;99185.91;;;19.21;100.00
28027;BME280;15344;52.342;-1.290;2023-07-31T00:40:05;99189.24;;;19.29;100.00
28027;BME280;15344;52.342;-1.290;2023-07-31T00:42:29;99182.52;;;19.13;100.00
28027;BME280;15344;52.342;-1.290;2023-07-31T00:44:54;99182.84;;;18.92;100.00
28027;BME280;15344;52.342;-1.290;2023-07-31T00:47:20;99183.67;;;19.05;100.00
28027;BME280;15344;52.342;-1.290;2023-07-31T00:49:45;99185.09;;;19.52;100.00
28027;BME280;15344;52.342;-1.290;2023-07-31T00:52:10;99182.66;;;19.66;100.00
28027;BME280;15344;52.342;-1.290;2023-07-31T00:54:35;99178.35;;;19.58;100.00
28027;BME280;15344;52.342;-1.290;2023-07-31T00:57:00;99175.17;;;19.60;100.00
28027;BME280;15344;52.342;-1.290;2023-07-31T00:59:25;99164.49;;;19.90;100.00
28027;BME280;15344;52.342;-1.290;2023-07-31T01:01:51;99161.33;;;19.92;100.00
28027;BME280;15344;52.342;-1.290;2023-07-31T01:04:16;99158.02;;;19.19;100.00
28027;BME280;15344;52.342;-1.290;2023-07-31T01:06:48;99156.94;;;18.83;100.00
28027;BME280;15344;52.342;-1.290;2023-07-31T01:09:09;99160.36;;;19.26;100.00
28027;BME280;15344;52.342;-1.290;2023-07-31T01:11:33;99154.48;;;19.19;100.00
28027;BME280;15344;52.342;-1.290;2023-07-31T01:13:56;99150.35;;;19.44;100.00
28027;BME280;15344;52.342;-1.290;2023-07-31T01:16:21;99151.64;;;19.76;100.00
28027;BME280;15344;52.342;-1.290;2023-07-31T01:18:46;99142.87;;;19.73;100.00
28027;BME280;15344;52.342;-1.290;2023-07-31T01:21:23;99145.34;;;19.52;100.00
28027;BME280;15344;52.342;-1.290;2023-07-31T01:23:51;99133.02;;;19.89;100.00
28027;BME280;15344;52.342;-1.290;2023-07-31T01:26:05;99129.72;;;19.91;100.00
28027;BME280;15344;52.342;-1.290;2023-07-31T01:28:33;99129.81;;;19.34;100.00
28027;BME280;15344;52.342;-1.290;2023-07-31T01:30:53;99128.57;;;19.64;100.00
28027;BME280;15344;52.342;-1.290;2023-07-31T01:33:17;99117.90;;;20.17;100.00
28027;BME280;15344;52.342;-1.290;2023-07-31T01:35:44;99122.62;;;19.80;100.00
28027;BME280;15344;52.342;-1.290;2023-07-31T01:38:07;99113.95;;;19.16;100.00
28027;BME280;15344;52.342;-1.290;2023-07-31T01:40:32;99113.63;;;19.77;100.00
28027;BME280;15344;52.342;-1.290;2023-07-31T01:42:57;99113.52;;;19.58;100.00
28027;BME280;15344;52.342;-1.290;2023-07-31T01:45:23;99106.67;;;20.09;100.00
28027;BME280;15344;52.342;-1.290;2023-07-31T01:47:48;99104.64;;;19.44;100.00
28027;BME280;15344;52.342;-1.290;2023-07-31T01:50:13;99099.18;;;20.13;100.00
28027;BME280;15344;52.342;-1.290;2023-07-31T01:52:38;99097.96;;;20.15;100.00
28027;BME280;15344;52.342;-1.290;2023-07-31T01:55:03;99099.68;;;20.68;100.00
28027;BME280;15344;52.342;-1.290;2023-07-31T01:57:28;99097.10;;;20.88;100.00
28027;BME280;15344;52.342;-1.290;2023-07-31T01:59:53;99097.28;;;20.46;100.00
28027;BME280;15344;52.342;-1.290;2023-07-31T02:02:18;99097.67;;;20.65;100.00
28027;BME280;15344;52.342;-1.290;2023-07-31T02:04:43;99098.40;;;20.91;100.00
28027;BME280;15344;52.342;-1.290;2023-07-31T02:07:08;99094.94;;;20.74;100.00
28027;BME280;15344;52.342;-1.290;2023-07-31T02:09:33;99089.72;;;21.15;100.00
28027;BME280;15344;52.342;-1.290;2023-07-31T02:11:59;99089.07;;;21.33;100.00
28027;BME280;15344;52.342;-1.290;2023-07-31T02:14:24;99083.71;;;21.37;100.00
28027;BME280;15344;52.342;-1.290;2023-07-31T02:16:49;99086.00;;;20.96;100.00
28027;BME280;15344;52.342;-1.290;2023-07-31T02:19:14;99084.09;;;21.48;100.00
28027;BME280;15344;52.342;-1.290;2023-07-31T02:21:39;99080.71;;;20.95;100.00
28027;BME280;15344;52.342;-1.290;2023-07-31T02:24:05;99080.63;;;21.47;100.00
28027;BME280;15344;52.342;-1.290;2023-07-31T02:26:30;99077.96;;;21.44;100.00
28027;BME280;15344;52.342;-1.290;2023-07-31T02:28:55;99076.61;;;21.17;100.00
28027;BME280;15344;52.342;-1.290;2023-07-31T02:31:20;99078.44;;;20.91;100.00
28027;BME280;15344;52.342;-1.290;2023-07-31T02:33:45;99075.75;;;21.09;100.00
28027;BME280;15344;52.342;-1.290;2023-07-31T02:36:10;99076.89;;;21.15;100.00
28027;BME280;15344;52.342;-1.290;2023-07-31T02:38:35;99075.67;;;20.23;100.00
28027;BME280;15344;52.342;-1.290;2023-07-31T02:41:00;99067.65;;;21.20;100.00
28027;BME280;15344;52.342;-1.290;2023-07-31T02:43:25;99064.94;;;20.75;100.00
28027;BME280;15344;52.342;-1.290;2023-07-31T02:45:51;99064.85;;;21.44;100.00
28027;BME280;15344;52.342;-1.290;2023-07-31T02:48:15;99066.80;;;21.13;100.00
28027;BME280;15344;52.342;-1.290;2023-07-31T02:50:40;99067.64;;;20.92;100.00
28027;BME280;15344;52.342;-1.290;2023-07-31T02:53:06;99072.25;;;21.34;100.00
28027;BME280;15344;52.342;-1.290;2023-07-31T02:55:31;99072.54;;;21.21;100.00
28027;BME280;15344;52.342;-1.290;2023-07-31T02:57:57;99073.09;;;20.87;100.00
28027;BME280;15344;52.342;-1.290;2023-07-31T03:00:22;99069.53;;;21.01;100.00
28027;BME280;15344;52.342;-1.290;2023-07-31T03:02:47;99065.20;;;20.74;100.00
28027;BME280;15344;52.342;-1.290;2023-07-31T03:05:12;99060.32;;;20.79;100.00
28027;BME280;15344;52.342;-1.290;2023-07-31T03:07:37;99054.20;;;20.84;100.00
28027;BME280;15344;52.342;-1.290;2023-07-31T03:10:02;99065.01;;;20.86;100.00
28027;BME280;15344;52.342;-1.290;2023-07-31T03:12:27;99064.72;;;21.02;100.00
28027;BME280;15344;52.342;-1.290;2023-07-31T03:14:52;99058.86;;;21.23;100.00
28027;BME280;15344;52.342;-1.290;2023-07-31T03:17:17;99052.34;;;21.22;100.00
28027;BME280;15344;52.342;-1.290;2023-07-31T03:19:42;99049.22;;;20.96;100.00
28027;BME280;15344;52.342;-1.290;2023-07-31T03:22:07;99049.16;;;20.84;100.00
28027;BME280;15344;52.342;-1.290;2023-07-31T03:24:32;99040.86;;;20.27;100.00
28027;BME280;15344;52.342;-1.290;2023-07-31T03:26:57;99045.21;;;20.81;100.00
28027;BME280;15344;52.342;-1.290;2023-07-31T03:29:22;99040.98;;;20.56;100.00
28027;BME280;15344;52.342;-1.290;2023-07-31T03:31:48;99040.64;;;20.86;100.00
28027;BME280;15344;52.342;-1.290;2023-07-31T03:34:13;99043.56;;;20.39;100.00
28027;BME280;15344;52.342;-1.290;2023-07-31T03:36:38;99040.75;;;20.32;100.00
28027;BME280;15344;52.342;-1.290;2023-07-31T03:39:03;99039.08;;;21.23;100.00
28027;BME280;15344;52.342;-1.290;2023-07-31T03:41:28;99035.31;;;21.01;100.00
28027;BME280;15344;52.342;-1.290;2023-07-31T03:43:53;99030.52;;;21.09;100.00
28027;BME280;15344;52.342;-1.290;2023-07-31T03:46:18;99035.02;;;21.50;100.00
28027;BME280;15344;52.342;-1.290;2023-07-31T03:48:43;99042.72;;;21.39;100.00
28027;BME280;15344;52.342;-1.290;2023-07-31T03:51:08;99043.29;;;20.86;100.00
28027;BME280;15344;52.342;-1.290;2023-07-31T03:53:33;99044.35;;;21.28;100.00
28027;BME280;15344;52.342;-1.290;2023-07-31T03:55:59;99038.99;;;21.58;100.00
28027;BME280;15344;52.342;-1.290;2023-07-31T03:58:23;99036.11;;;20.81;100.00
28027;BME280;15344;52.342;-1.290;2023-07-31T04:00:48;99032.17;;;20.90;100.00
28027;BME280;15344;52.342;-1.290;2023-07-31T04:03:13;99033.13;;;20.27;100.00
28027;BME280;15344;52.342;-1.290;2023-07-31T04:05:39;99026.21;;;20.92;100.00
28027;BME280;15344;52.342;-1.290;2023-07-31T04:08:04;99028.35;;;21.36;100.00
28027;BME280;15344;52.342;-1.290;2023-07-31T04:10:28;99028.12;;;20.91;100.00
28027;BME280;15344;52.342;-1.290;2023-07-31T04:12:54;99031.92;;;20.77;100.00
28027;BME280;15344;52.342;-1.290;2023-07-31T04:15:19;99034.72;;;21.10;100.00
28027;BME280;15344;52.342;-1.290;2023-07-31T04:17:44;99031.21;;;21.35;100.00
28027;BME280;15344;52.342;-1.290;2023-07-31T04:20:10;99031.62;;;20.54;100.00
28027;BME280;15344;52.342;-1.290;2023-07-31T04:22:34;99028.67;;;21.10;100.00
28027;BME280;15344;52.342;-1.290;2023-07-31T04:24:59;99029.61;;;20.47;100.00
28027;BME280;15344;52.342;-1.290;2023-07-31T04:27:24;99031.21;;;20.31;100.00
28027;BME280;15344;52.342;-1.290;2023-07-31T04:29:49;99026.54;;;20.76;100.00
28027;BME280;15344;52.342;-1.290;2023-07-31T04:32:14;99024.05;;;20.73;100.00
28027;BME280;15344;52.342;-1.290;2023-07-31T04:34:39;99025.47;;;21.34;100.00
28027;BME280;15344;52.342;-1.290;2023-07-31T04:37:04;99031.89;;;21.05;100.00
28027;BME280;15344;52.342;-1.290;2023-07-31T04:39:29;99035.56;;;20.25;100.00
28027;BME280;15344;52.342;-1.290;2023-07-31T04:41:55;99038.68;;;20.02;100.00
28027;BME280;15344;52.342;-1.290;2023-07-31T04:44:20;99032.24;;;20.86;100.00
28027;BME280;15344;52.342;-1.290;2023-07-31T04:46:45;99039.34;;;20.39;100.00
28027;BME280;15344;52.342;-1.290;2023-07-31T04:49:11;99042.58;;;20.87;100.00
28027;BME280;15344;52.342;-1.290;2023-07-31T04:51:35;99036.87;;;20.95;100.00
28027;BME280;15344;52.342;-1.290;2023-07-31T04:54:00;99042.80;;;20.53;100.00
28027;BME280;15344;52.342;-1.290;2023-07-31T04:56:25;99043.50;;;21.02;100.00
28027;BME280;15344;52.342;-1.290;2023-07-31T04:58:50;99036.93;;;21.43;100.00
28027;BME280;15344;52.342;-1.290;2023-07-31T05:01:15;99040.10;;;20.86;100.00
28027;BME280;15344;52.342;-1.290;2023-07-31T05:03:40;99049.04;;;21.18;100.00
28027;BME280;15344;52.342;-1.290;2023-07-31T05:06:05;99050.37;;;20.24;100.00
28027;BME280;15344;52.342;-1.290;2023-07-31T05:08:30;99050.33;;;20.63;100.00
28027;BME280;15344;52.342;-1.290;2023-07-31T05:10:55;99045.98;;;22.06;100.00
28027;BME280;15344;52.342;-1.290;2023-07-31T05:13:20;99047.11;;;21.19;100.00
28027;BME280;15344;52.342;-1.290;2023-07-31T05:15:46;99043.47;;;20.93;100.00
28027;BME280;15344;52.342;-1.290;2023-07-31T05:18:11;99040.91;;;20.83;100.00
28027;BME280;15344;52.342;-1.290;2023-07-31T05:20:36;99046.54;;;21.04;100.00
28027;BME280;15344;52.342;-1.290;2023-07-31T05:23:01;99048.38;;;21.69;100.00
28027;BME280;15344;52.342;-1.290;2023-07-31T05:25:26;99051.38;;;21.13;100.00
28027;BME280;15344;52.342;-1.290;2023-07-31T05:27:51;99044.38;;;21.68;100.00
28027;BME280;15344;52.342;-1.290;2023-07-31T05:30:16;99042.28;;;20.72;100.00
28027;BME280;15344;52.342;-1.290;2023-07-31T05:32:41;99046.31;;;20.52;100.00
28027;BME280;15344;52.342;-1.290;2023-07-31T05:35:07;99045.19;;;20.04;100.00
28027;BME280;15344;52.342;-1.290;2023-07-31T05:37:31;99046.18;;;20.84;100.00
28027;BME280;15344;52.342;-1.290;2023-07-31T05:39:56;99045.17;;;21.53;100.00
28027;BME280;15344;52.342;-1.290;2023-07-31T05:42:21;99043.59;;;21.10;100.00
28027;BME280;15344;52.342;-1.290;2023-07-31T05:44:46;99047.30;;;21.07;100.00
28027;BME280;15344;52.342;-1.290;2023-07-31T05:47:11;99051.83;;;21.46;100.00
28027;BME280;15344;52.342;-1.290;2023-07-31T05:49:37;99059.19;;;21.57;100.00
28027;BME280;15344;52.342;-1.290;2023-07-31T05:52:02;99057.20;;;21.15;100.00
28027;BME280;15344;52.342;-1.290;2023-07-31T05:54:27;99063.57;;;20.80;100.00
28027;BME280;15344;52.342;-1.290;2023-07-31T05:56:52;99058.69;;;21.10;100.00
28027;BME280;15344;52.342;-1.290;2023-07-31T05:59:17;99064.37;;;21.00;100.00
28027;BME280;15344;52.342;-1.290;2023-07-31T06:01:42;99062.31;;;20.78;100.00
28027;BME280;15344;52.342;-1.290;2023-07-31T06:04:07;99065.35;;;20.13;100.00
28027;BME280;15344;52.342;-1.290;2023-07-31T06:06:32;99061.34;;;21.02;100.00
28027;BME280;15344;52.342;-1.290;2023-07-31T06:08:57;99057.56;;;20.84;100.00
28027;BME280;15344;52.342;-1.290;2023-07-31T06:11:22;99048.48;;;21.07;100.00
28027;BME280;15344;52.342;-1.290;2023-07-31T06:13:47;99036.51;;;21.17;100.00
28027;BME280;15344;52.342;-1.290;2023-07-31T06:16:13;99034.48;;;20.88;100.00
28027;BME280;15344;52.342;-1.290;2023-07-31T06:18:37;99030.92;;;20.64;100.00
28027;BME280;15344;52.342;-1.290;2023-07-31T06:21:03;99029.73;;;21.15;100.00
28027;BME280;15344;52.342;-1.290;2023-07-31T06:23:28;99023.05;;;21.02;100.00
28027;BME280;15344;52.342;-1.290;2023-07-31T06:25:53;99022.39;;;20.74;100.00
28027;BME280;15344;52.342;-1.290;2023-07-31T06:28:18;99026.62;;;21.04;100.00
28027;BME280;15344;52.342;-1.290;2023-07-31T06:30:43;99029.96;;;21.21;100.00
28027;BME280;15344;52.342;-1.290;2023-07-31T06:33:08;99029.71;;;21.21;100.00
28027;BME280;15344;52.342;-1.290;2023-07-31T06:35:33;99024.83;;;21.47;100.00
28027;BME280;15344;52.342;-1.290;2023-07-31T06:37:59;99022.24;;;21.99;100.00
28027;BME280;15344;52.342;-1.290;2023-07-31T06:40:23;99013.95;;;21.79;100.00
28027;BME280;15344;52.342;-1.290;2023-07-31T06:42:48;99012.05;;;22.05;100.00
28027;BME280;15344;52.342;-1.290;2023-07-31T06:45:13;99008.88;;;21.63;100.00
28027;BME280;15344;52.342;-1.290;2023-07-31T06:47:38;99005.67;;;21.96;100.00
28027;BME280;15344;52.342;-1.290;2023-07-31T06:50:04;99010.46;;;21.83;100.00
28027;BME280;15344;52.342;-1.290;2023-07-31T06:52:29;99021.49;;;21.81;100.00
28027;BME280;15344;52.342;-1.290;2023-07-31T06:55:00;99039.03;;;22.15;100.00
28027;BME280;15344;52.342;-1.290;2023-07-31T06:57:19;99046.25;;;21.59;100.00
28027;BME280;15344;52.342;-1.290;2023-07-31T06:59:44;99046.18;;;22.25;100.00
28027;BME280;15344;52.342;-1.290;2023-07-31T07:02:09;99047.59;;;22.06;100.00
28027;BME280;15344;52.342;-1.290;2023-07-31T07:04:34;99044.53;;;22.12;100.00
28027;BME280;15344;52.342;-1.290;2023-07-31T07:06:59;99041.97;;;21.91;100.00
28027;BME280;15344;52.342;-1.290;2023-07-31T07:09:24;99036.94;;;22.24;100.00
28027;BME280;15344;52.342;-1.290;2023-07-31T07:11:49;99029.13;;;21.88;100.00
28027;BME280;15344;52.342;-1.290;2023-07-31T07:14:14;99019.13;;;21.73;100.00
28027;BME280;15344;52.342;-1.290;2023-07-31T07:16:39;99013.50;;;22.22;100.00
28027;BME280;15344;52.342;-1.290;2023-07-31T07:19:04;99012.73;;;21.53;100.00
28027;BME280;15344;52.342;-1.290;2023-07-31T07:21:29;99013.77;;;21.91;100.00
28027;BME280;15344;52.342;-1.290;2023-07-31T07:23:54;99023.44;;;22.76;100.00
28027;BME280;15344;52.342;-1.290;2023-07-31T07:26:20;99027.33;;;22.08;100.00
28027;BME280;15344;52.342;-1.290;2023-07-31T07:28:44;99018.49;;;23.73;98.40
28027;BME280;15344;52.342;-1.290;2023-07-31T07:31:09;99019.28;;;23.36;95.55
28027;BME280;15344;52.342;-1.290;2023-07-31T07:33:34;99018.02;;;23.89;93.81
28027;BME280;15344;52.342;-1.290;2023-07-31T07:36:00;99017.35;;;23.80;93.22
28027;BME280;15344;52.342;-1.290;2023-07-31T07:38:26;99018.48;;;23.55;94.21
28027;BME280;15344;52.342;-1.290;2023-07-31T07:40:52;99016.61;;;23.42;92.09
28027;BME280;15344;52.342;-1.290;2023-07-31T07:43:18;99000.69;;;23.23;91.88
28027;BME280;15344;52.342;-1.290;2023-07-31T07:45:44;98998.13;;;22.31;95.77
28027;BME280;15344;52.342;-1.290;2023-07-31T07:48:09;98991.16;;;22.97;94.33
28027;BME280;15344;52.342;-1.290;2023-07-31T07:50:37;98987.71;;;23.35;92.03
28027;BME280;15344;52.342;-1.290;2023-07-31T07:53:01;98988.03;;;23.67;91.11
28027;BME280;15344;52.342;-1.290;2023-07-31T07:55:26;98997.45;;;23.08;92.48
28027;BME280;15344;52.342;-1.290;2023-07-31T07:57:51;99009.34;;;22.78;94.19
28027;BME280;15344;52.342;-1.290;2023-07-31T08:00:17;99021.22;;;22.33;96.87
28027;BME280;15344;52.342;-1.290;2023-07-31T08:02:41;99030.60;;;21.80;96.12
28027;BME280;15344;52.342;-1.290;2023-07-31T08:05:07;99032.29;;;22.05;97.36
28027;BME280;15344;52.342;-1.290;2023-07-31T08:07:31;99025.11;;;20.94;100.00
28027;BME280;15344;52.342;-1.290;2023-07-31T08:09:56;99019.79;;;21.71;100.00
28027;BME280;15344;52.342;-1.290;2023-07-31T08:12:21;99004.72;;;21.69;100.00
28027;BME280;15344;52.342;-1.290;2023-07-31T08:14:46;99007.97;;;21.74;100.00
28027;BME280;15344;52.342;-1.290;2023-07-31T08:17:11;99004.98;;;21.59;100.00
28027;BME280;15344;52.342;-1.290;2023-07-31T08:19:37;99010.18;;;22.25;97.13
28027;BME280;15344;52.342;-1.290;2023-07-31T08:22:02;99012.60;;;22.14;97.73
28027;BME280;15344;52.342;-1.290;2023-07-31T08:24:27;98990.80;;;22.28;97.26
28027;BME280;15344;52.342;-1.290;2023-07-31T08:26:51;98998.64;;;22.04;96.49
28027;BME280;15344;52.342;-1.290;2023-07-31T08:29:16;99002.61;;;22.47;94.66
28027;BME280;15344;52.342;-1.290;2023-07-31T08:31:42;98999.22;;;21.76;96.24
28027;BME280;15344;52.342;-1.290;2023-07-31T08:34:06;98992.44;;;22.10;95.56
28027;BME280;15344;52.342;-1.290;2023-07-31T08:36:32;98997.05;;;22.40;95.69
28027;BME280;15344;52.342;-1.290;2023-07-31T08:38:57;98997.80;;;22.32;94.58
28027;BME280;15344;52.342;-1.290;2023-07-31T08:41:22;98994.10;;;23.11;93.37
28027;BME280;15344;52.342;-1.290;2023-07-31T08:43:47;98986.99;;;23.00;93.08
28027;BME280;15344;52.342;-1.290;2023-07-31T08:46:12;98992.30;;;22.59;93.35
28027;BME280;15344;52.342;-1.290;2023-07-31T08:48:37;98990.64;;;23.03;90.87
28027;BME280;15344;52.342;-1.290;2023-07-31T08:51:02;98989.86;;;21.98;94.71
28027;BME280;15344;52.342;-1.290;2023-07-31T08:53:27;98990.52;;;22.66;92.41
28027;BME280;15344;52.342;-1.290;2023-07-31T08:55:53;98982.59;;;22.55;93.86
28027;BME280;15344;52.342;-1.290;2023-07-31T08:58:17;98982.24;;;22.16;95.86
28027;BME280;15344;52.342;-1.290;2023-07-31T09:00:43;98979.51;;;21.90;96.91
28027;BME280;15344;52.342;-1.290;2023-07-31T09:03:09;98978.05;;;21.10;100.00
28027;BME280;15344;52.342;-1.290;2023-07-31T09:05:32;98994.83;;;21.84;98.36
28027;BME280;15344;52.342;-1.290;2023-07-31T09:07:57;99000.89;;;22.18;99.38
28027;BME280;15344;52.342;-1.290;2023-07-31T09:10:22;99004.77;;;22.86;94.58
28027;BME280;15344;52.342;-1.290;2023-07-31T09:12:49;98999.97;;;23.59;92.12
28027;BME280;15344;52.342;-1.290;2023-07-31T09:15:12;98994.40;;;23.34;91.47
28027;BME280;15344;52.342;-1.290;2023-07-31T09:17:37;98993.87;;;22.81;94.65
28027;BME280;15344;52.342;-1.290;2023-07-31T09:22:32;98976.90;;;22.52;96.14
28027;BME280;15344;52.342;-1.290;2023-07-31T09:24:52;98978.28;;;22.31;98.40
28027;BME280;15344;52.342;-1.290;2023-07-31T09:27:17;98978.48;;;22.11;97.59
28027;BME280;15344;52.342;-1.290;2023-07-31T09:29:42;98976.47;;;21.89;97.00
28027;BME280;15344;52.342;-1.290;2023-07-31T09:32:15;98977.68;;;21.99;98.78
28027;BME280;15344;52.342;-1.290;2023-07-31T09:34:38;98970.13;;;23.04;95.90
28027;BME280;15344;52.342;-1.290;2023-07-31T09:37:01;98960.40;;;22.78;94.63
28027;BME280;15344;52.342;-1.290;2023-07-31T09:39:22;98951.84;;;23.01;93.40
28027;BME280;15344;52.342;-1.290;2023-07-31T09:41:54;98961.59;;;22.76;93.53
28027;BME280;15344;52.342;-1.290;2023-07-31T09:44:12;98975.92;;;22.21;94.19
28027;BME280;15344;52.342;-1.290;2023-07-31T09:46:38;98977.88;;;22.78;94.95
28027;BME280;15344;52.342;-1.290;2023-07-31T09:49:07;98975.57;;;22.62;92.85
28027;BME280;15344;52.342;-1.290;2023-07-31T09:51:28;98972.35;;;21.91;97.15
28027;BME280;15344;52.342;-1.290;2023-07-31T09:53:53;98973.87;;;22.47;96.70
28027;BME280;15344;52.342;-1.290;2023-07-31T09:56:20;98971.20;;;22.41;97.62
28027;BME280;15344;52.342;-1.290;2023-07-31T09:58:43;98958.65;;;22.91;94.33
28027;BME280;15344;52.342;-1.290;2023-07-31T10:01:08;98955.22;;;22.56;93.68
28027;BME280;15344;52.342;-1.290;2023-07-31T10:03:34;98950.63;;;22.81;95.20
28027;BME280;15344;52.342;-1.290;2023-07-31T10:06:00;98947.22;;;23.39;92.87
28027;BME280;15344;52.342;-1.290;2023-07-31T10:08:27;98948.38;;;23.32;91.42
28027;BME280;15344;52.342;-1.290;2023-07-31T10:10:48;98942.95;;;23.44;91.69
28027;BME280;15344;52.342;-1.290;2023-07-31T10:13:14;98932.94;;;23.40;92.79
28027;BME280;15344;52.342;-1.290;2023-07-31T10:15:38;98943.62;;;23.21;94.68
28027;BME280;15344;52.342;-1.290;2023-07-31T10:18:06;98948.96;;;22.97;93.71
28027;BME280;15344;52.342;-1.290;2023-07-31T10:20:29;98953.61;;;22.84;94.73
28027;BME280;15344;52.342;-1.290;2023-07-31T10:22:55;98957.94;;;22.85;92.96
28027;BME280;15344;52.342;-1.290;2023-07-31T10:25:20;98961.53;;;22.20;94.81
28027;BME280;15344;52.342;-1.290;2023-07-31T10:27:43;98957.96;;;22.41;93.65
28027;BME280;15344;52.342;-1.290;2023-07-31T10:30:12;98962.76;;;22.86;91.40
28027;BME280;15344;52.342;-1.290;2023-07-31T10:32:34;98966.67;;;23.02;91.75
28027;BME280;15344;52.342;-1.290;2023-07-31T10:34:59;98977.69;;;22.36;92.47
28027;BME280;15344;52.342;-1.290;2023-07-31T10:37:25;98981.74;;;22.92;93.10
28027;BME280;15344;52.342;-1.290;2023-07-31T10:39:55;98983.78;;;22.52;92.68
28027;BME280;15344;52.342;-1.290;2023-07-31T10:42:14;98993.80;;;21.80;92.87
28027;BME280;15344;52.342;-1.290;2023-07-31T10:44:43;99004.67;;;22.28;86.85
28027;BME280;15344;52.342;-1.290;2023-07-31T10:47:04;99007.54;;;21.39;89.58
28027;BME280;15344;52.342;-1.290;2023-07-31T10:49:29;99003.28;;;21.62;82.59
28027;BME280;15344;52.342;-1.290;2023-07-31T10:51:56;99002.77;;;21.57;84.39
28027;BME280;15344;52.342;-1.290;2023-07-31T10:54:19;98982.03;;;22.12;82.68
28027;BME280;15344;52.342;-1.290;2023-07-31T10:56:45;98968.11;;;21.97;82.14
28027;BME280;15344;52.342;-1.290;2023-07-31T10:59:09;98965.42;;;21.56;87.01
28027;BME280;15344;52.342;-1.290;2023-07-31T11:03:59;98973.70;;;22.08;88.95
28027;BME280;15344;52.342;-1.290;2023-07-31T11:06:29;98977.99;;;21.00;93.41
28027;BME280;15344;52.342;-1.290;2023-07-31T11:08:50;98994.66;;;20.53;97.00
28027;BME280;15344;52.342;-1.290;2023-07-31T11:11:16;98991.91;;;21.12;95.51
28027;BME280;15344;52.342;-1.290;2023-07-31T11:13:42;98993.18;;;21.91;90.21
28027;BME280;15344;52.342;-1.290;2023-07-31T11:16:04;98997.65;;;21.72;89.52
28027;BME280;15344;52.342;-1.290;2023-07-31T11:18:30;99008.93;;;21.22;91.15
28027;BME280;15344;52.342;-1.290;2023-07-31T11:20:55;99019.37;;;21.30;91.98
28027;BME280;15344;52.342;-1.290;2023-07-31T11:23:21;99023.45;;;22.01;88.11
28027;BME280;15344;52.342;-1.290;2023-07-31T11:25:45;99018.05;;;21.74;88.65
28027;BME280;15344;52.342;-1.290;2023-07-31T11:28:13;99007.41;;;21.61;87.81
28027;BME280;15344;52.342;-1.290;2023-07-31T11:30:35;99004.10;;;21.60;88.32
28027;BME280;15344;52.342;-1.290;2023-07-31T11:33:02;98999.06;;;21.48;86.08
28027;BME280;15344;52.342;-1.290;2023-07-31T11:35:25;98997.36;;;21.59;86.22
28027;BME280;15344;52.342;-1.290;2023-07-31T11:37:50;98997.55;;;21.91;84.89
28027;BME280;15344;52.342;-1.290;2023-07-31T11:40:16;98986.84;;;21.35;85.55
28027;BME280;15344;52.342;-1.290;2023-07-31T11:42:40;98978.28;;;21.68;83.69
28027;BME280;15344;52.342;-1.290;2023-07-31T11:45:07;98974.30;;;21.86;80.60
28027;BME280;15344;52.342;-1.290;2023-07-31T11:47:33;98956.86;;;22.46;80.34
28027;BME280;15344;52.342;-1.290;2023-07-31T11:49:56;98949.29;;;22.68;78.41
28027;BME280;15344;52.342;-1.290;2023-07-31T11:52:22;98945.54;;;21.66;79.93
28027;BME280;15344;52.342;-1.290;2023-07-31T11:54:46;98936.98;;;22.61;77.48
28027;BME280;15344;52.342;-1.290;2023-07-31T11:57:12;98929.62;;;21.53;83.89
28027;BME280;15344;52.342;-1.290;2023-07-31T11:59:38;98929.02;;;22.57;80.19
28027;BME280;15344;52.342;-1.290;2023-07-31T12:02:02;98922.89;;;22.15;80.14
28027;BME280;15344;52.342;-1.290;2023-07-31T12:04:27;98921.73;;;22.55;76.66
28027;BME280;15344;52.342;-1.290;2023-07-31T12:06:53;98927.14;;;21.91;78.20
28027;BME280;15344;52.342;-1.290;2023-07-31T12:09:16;98925.20;;;22.82;76.81
28027;BME280;15344;52.342;-1.290;2023-07-31T12:11:43;98923.28;;;22.92;78.77
28027;BME280;15344;52.342;-1.290;2023-07-31T12:14:06;98914.50;;;23.07;77.76
28027;BME280;15344;52.342;-1.290;2023-07-31T12:16:34;98914.09;;;22.10;80.48
28027;BME280;15344;52.342;-1.290;2023-07-31T12:18:57;98915.48;;;22.23;82.04
28027;BME280;15344;52.342;-1.290;2023-07-31T12:21:22;98915.58;;;22.22;82.44
28027;BME280;15344;52.342;-1.290;2023-07-31T12:23:47;98911.13;;;21.29;84.77
28027;BME280;15344;52.342;-1.290;2023-07-31T12:26:13;98900.57;;;21.95;84.06
28027;BME280;15344;52.342;-1.290;2023-07-31T12:28:39;98885.96;;;21.74;89.02
28027;BME280;15344;52.342;-1.290;2023-07-31T12:31:02;98869.45;;;22.52;85.18
28027;BME280;15344;52.342;-1.290;2023-07-31T12:33:32;98851.11;;;22.45;84.77
28027;BME280;15344;52.342;-1.290;2023-07-31T12:35:52;98851.04;;;22.47;83.04